createdAt,value
2023-02-17T00:00:23.925Z,57.10
2023-02-17T00:05:23.052Z,56.46
2023-02-17T00:10:24.196Z,56.77
2023-02-17T00:15:26.333Z,56.35
2023-02-17T00:20:42.238Z,57.31
2023-02-17T00:25:25.341Z,58.05
2023-02-17T00:30:27.473Z,57.00
2023-02-17T00:35:27.599Z,56.90
2023-02-17T00:40:26.745Z,56.28
2023-02-17T00:45:28.936Z,54.51
2023-02-17T00:50:30.043Z,54.72
2023-02-17T00:55:29.251Z,57.20
2023-02-17T01:00:31.360Z,59.11
2023-02-17T01:05:30.488Z,58.72
2023-02-17T01:10:31.626Z,57.77
2023-02-17T01:15:32.735Z,58.69
2023-02-17T01:20:34.841Z,59.13
2023-02-17T01:25:35.034Z,57.98
2023-02-17T01:30:34.325Z,57.15
2023-02-17T01:35:35.432Z,58.15
2023-02-17T01:40:37.605Z,57.98
2023-02-17T01:45:36.746Z,57.03
2023-02-17T01:50:37.953Z,57.87
2023-02-17T01:55:38.119Z,57.46
2023-02-17T02:00:39.197Z,58.39
2023-02-17T02:05:41.349Z,58.72
2023-02-17T02:10:40.439Z,58.51
2023-02-17T02:15:41.571Z,58.11
2023-02-17T02:20:43.699Z,57.77
2023-02-17T02:25:43.861Z,57.46
2023-02-17T02:30:44.995Z,57.87
2023-02-17T02:35:45.115Z,56.85
2023-02-17T02:40:44.236Z,56.20
2023-02-17T02:45:45.425Z,54.53
2023-02-17T02:50:47.537Z,55.36
2023-02-17T02:55:46.639Z,55.36
2023-02-17T03:00:47.798Z,55.05
2023-02-17T03:05:48.974Z,54.95
2023-02-17T03:10:52.085Z,55.87
2023-02-17T03:15:51.193Z,56.20
2023-02-17T03:20:52.348Z,56.00
2023-02-17T03:25:56.475Z,56.20
2023-02-17T03:30:54.595Z,55.59
2023-02-17T03:35:54.792Z,55.36
2023-02-17T03:40:54.875Z,55.79
2023-02-17T03:45:53.963Z,56.62
2023-02-17T03:50:56.065Z,56.95
2023-02-17T03:55:56.153Z,56.41
2023-02-17T04:00:56.257Z,55.18
2023-02-17T04:05:58.380Z,55.08
2023-02-17T04:10:55.494Z,54.66
2023-02-17T04:15:56.640Z,54.74
2023-02-17T04:20:58.758Z,54.13
2023-02-17T04:25:57.898Z,54.74
2023-02-17T04:30:59.128Z,55.49
2023-02-17T04:36:02.234Z,55.69
2023-02-17T04:41:02.434Z,54.77
2023-02-17T04:46:01.542Z,55.08
2023-02-17T04:51:03.670Z,55.59
2023-02-17T04:56:02.778Z,55.08
2023-02-17T05:01:03.881Z,55.28
2023-02-17T05:06:06.290Z,55.28
2023-02-17T05:11:05.613Z,55.28
2023-02-17T05:16:08.142Z,54.36
2023-02-17T05:21:07.411Z,54.25
2023-02-17T05:26:08.759Z,53.92
2023-02-17T05:31:09.938Z,54.97
2023-02-17T05:36:12.135Z,55.59
2023-02-17T05:41:12.276Z,55.41
2023-02-17T05:46:12.579Z,55.30
2023-02-17T05:51:11.690Z,55.38
2023-02-17T05:56:12.825Z,54.66
2023-02-17T06:01:14.951Z,55.38
2023-02-17T06:06:14.122Z,54.36
2023-02-17T06:11:15.238Z,53.61
2023-02-17T06:16:17.389Z,53.41
2023-02-17T06:21:18.486Z,53.69
2023-02-17T06:26:18.638Z,53.69
2023-02-17T06:31:19.023Z,54.10
2023-02-17T06:36:18.181Z,54.02
2023-02-17T06:41:20.290Z,54.64
2023-02-17T06:46:19.398Z,54.44
2023-02-17T06:51:20.528Z,54.02
2023-02-17T06:56:21.622Z,53.69
2023-02-17T07:01:22.711Z,53.18
2023-02-17T07:06:23.840Z,53.18
2023-02-17T07:11:24.950Z,53.28
2023-02-17T07:16:28.416Z,52.97
2023-02-17T07:21:25.581Z,53.08
2023-02-17T07:26:27.654Z,52.54
2023-02-17T07:31:27.899Z,52.44
2023-02-17T07:36:28.050Z,52.62
2023-02-17T07:41:27.155Z,52.11
2023-02-17T07:46:29.313Z,52.19
2023-02-17T07:51:28.473Z,51.37
2023-02-17T07:56:29.565Z,51.78
2023-02-17T08:01:31.668Z,50.96
2023-02-17T08:06:30.821Z,50.93
2023-02-17T08:11:31.927Z,51.75
2023-02-17T08:16:33.089Z,52.39
2023-02-17T08:21:36.222Z,52.87
2023-02-17T08:26:35.375Z,52.14
2023-02-17T08:31:36.573Z,51.83
2023-02-17T08:36:39.794Z,51.83
2023-02-17T08:41:40.921Z,52.85
2023-02-17T08:46:40.091Z,52.34
2023-02-17T08:51:41.267Z,52.24
2023-02-17T08:56:42.422Z,52.03
2023-02-17T09:01:43.560Z,51.12
2023-02-17T09:06:44.780Z,51.50
2023-02-17T09:11:45.902Z,50.45
2023-02-17T09:16:48.061Z,51.15
2023-02-17T09:21:47.307Z,50.71
2023-02-17T09:26:49.401Z,49.57
2023-02-17T09:31:48.620Z,48.11
2023-02-17T09:36:51.154Z,49.05
2023-02-17T09:41:50.364Z,49.77
2023-02-17T09:47:01.246Z,48.75
2023-02-17T09:51:51.426Z,47.71
2023-02-17T09:56:53.576Z,48.07
2023-02-17T10:01:52.684Z,47.54
2023-02-17T10:06:54.880Z,47.21
2023-02-17T10:11:55.007Z,45.46
2023-02-17T10:16:54.132Z,45.67
2023-02-17T10:21:56.288Z,45.26
2023-02-17T10:26:55.447Z,45.38
2023-02-17T10:31:56.675Z,45.28
2023-02-17T10:36:57.886Z,45.99
2023-02-17T10:41:58.999Z,46.48
2023-02-17T10:47:01.098Z,50.19
2023-02-17T10:52:01.236Z,47.44
2023-02-17T10:57:00.398Z,50.11
2023-02-17T11:02:01.498Z,52.25
2023-02-17T11:07:03.612Z,51.08
2023-02-17T11:12:03.762Z,52.83
2023-02-17T11:17:04.922Z,53.24
2023-02-17T11:22:05.037Z,51.36
2023-02-17T11:27:04.137Z,52.58
2023-02-17T11:32:06.290Z,52.76
2023-02-17T11:37:07.399Z,48.77
2023-02-17T11:42:06.520Z,48.14
2023-02-17T11:47:07.659Z,47.86
2023-02-17T11:52:10.785Z,47.14
2023-02-17T11:57:09.865Z,46.53
2023-02-17T12:02:10.954Z,47.13
2023-02-17T12:07:14.094Z,46.21
2023-02-17T12:12:14.197Z,46.72
2023-02-17T12:17:14.337Z,46.31
2023-02-17T12:22:14.494Z,46.21
2023-02-17T12:27:14.637Z,46.82
2023-02-17T12:32:14.857Z,47.45
2023-02-17T12:37:13.976Z,48.85
2023-02-17T12:42:15.071Z,49.81
2023-02-17T12:47:18.522Z,49.08
2023-02-17T12:52:18.652Z,49.16
2023-02-17T12:57:19.773Z,50.60
2023-02-17T13:02:19.959Z,52.03
2023-02-17T13:07:21.403Z,53.45
2023-02-17T13:12:18.537Z,54.66
2023-02-17T13:17:23.553Z,55.88
2023-02-17T13:22:20.661Z,55.45
2023-02-17T13:27:26.685Z,56.34
2023-02-17T13:32:21.806Z,55.10
2023-02-17T13:37:23.926Z,54.97
2023-02-17T13:42:23.056Z,54.13
2023-02-17T13:47:25.212Z,54.24
2023-02-17T13:52:24.371Z,54.94
2023-02-17T13:57:27.472Z,56.39
2023-02-17T14:02:36.122Z,58.92
2023-02-17T14:07:27.690Z,60.04
2023-02-17T14:12:28.886Z,58.95
2023-02-17T14:17:32.572Z,60.27
2023-02-17T14:22:31.111Z,62.41
2023-02-17T14:27:32.301Z,66.85
2023-02-17T14:32:32.410Z,64.18
2023-02-17T14:37:30.677Z,64.28
2023-02-17T14:42:32.872Z,64.79
2023-02-17T14:47:31.988Z,65.08
2023-02-17T14:52:34.105Z,65.25
2023-02-17T14:57:35.232Z,65.22
2023-02-17T15:02:34.349Z,64.26
2023-02-17T15:07:35.433Z,65.42
2023-02-17T15:12:36.537Z,65.08
2023-02-17T15:17:38.625Z,64.78
2023-02-17T15:22:38.744Z,62.63
2023-02-17T15:27:38.851Z,64.95
2023-02-17T15:32:38.011Z,66.07
2023-02-17T15:37:39.337Z,68.07
2023-02-17T15:42:41.729Z,65.72
2023-02-17T15:47:42.405Z,66.16
2023-02-17T15:52:42.826Z,65.52
2023-02-17T15:57:41.998Z,65.19
2023-02-17T16:02:43.108Z,68.85
2023-02-17T16:07:45.194Z,71.30
2023-02-17T16:12:44.290Z,71.67
2023-02-17T16:17:47.783Z,72.08
2023-02-17T16:22:44.986Z,71.47
2023-02-17T16:27:47.138Z,71.70
2023-02-17T16:32:47.277Z,71.47
2023-02-17T16:37:47.223Z,72.11
2023-02-17T16:42:46.428Z,72.01
2023-02-17T16:47:47.658Z,72.72
2023-02-17T16:52:49.845Z,73.26
2023-02-17T16:57:49.182Z,72.41
2023-02-17T17:02:49.471Z,72.11
2023-02-17T17:07:52.649Z,73.43
2023-02-17T17:12:52.834Z,74.15
2023-02-17T17:17:52.951Z,74.38
2023-02-17T17:22:52.050Z,74.90
2023-02-17T17:27:53.429Z,75.44
2023-02-17T17:32:56.789Z,75.64
2023-02-17T17:37:57.215Z,76.05
2023-02-17T17:42:56.646Z,77.11
2023-02-17T17:47:59.659Z,76.66
2023-02-17T17:53:00.173Z,77.00
2023-02-17T17:57:59.684Z,77.51
2023-02-17T18:02:59.932Z,77.92
2023-02-17T18:08:00.325Z,78.43
2023-02-17T18:12:59.842Z,78.33
2023-02-17T18:17:58.334Z,78.02
2023-02-17T18:22:59.791Z,77.92
2023-02-17T18:27:59.333Z,77.92
2023-02-17T18:33:00.581Z,77.21
2023-02-17T18:38:04.048Z,76.70
2023-02-17T18:42:59.502Z,76.39
2023-02-17T18:48:01.602Z,75.98
2023-02-17T18:53:01.902Z,76.59
2023-02-17T18:58:01.485Z,77.00
2023-02-17T19:03:02.940Z,77.65
2023-02-17T19:08:03.164Z,77.96
2023-02-17T19:13:02.588Z,77.75
2023-02-17T19:18:02.774Z,77.75
2023-02-17T19:23:02.144Z,77.25
2023-02-17T19:28:06.429Z,77.25
2023-02-17T19:33:02.677Z,77.34
2023-02-17T19:38:02.135Z,77.34
2023-02-17T19:43:02.632Z,77.38
2023-02-17T19:48:02.056Z,77.48
2023-02-17T19:53:03.307Z,76.97
2023-02-17T19:58:04.410Z,76.16
2023-02-17T20:03:10.505Z,76.56
2023-02-17T20:08:05.823Z,76.02
2023-02-17T20:13:07.202Z,74.90
2023-02-17T20:18:06.427Z,75.31
2023-02-17T20:23:07.802Z,73.57
2023-02-17T20:28:07.336Z,74.69
2023-02-17T20:33:06.884Z,74.90
2023-02-17T20:38:07.318Z,73.57
2023-02-17T20:43:06.801Z,74.38
2023-02-17T20:48:07.210Z,74.42
2023-02-17T20:53:19.017Z,74.32
2023-02-17T20:58:06.486Z,74.73
2023-02-17T21:03:08.020Z,74.11
2023-02-17T21:08:08.392Z,73.54
2023-02-17T21:13:05.828Z,75.48
2023-02-17T21:18:10.241Z,75.58
2023-02-17T21:23:13.785Z,73.84
2023-02-17T21:28:10.927Z,75.04
2023-02-17T21:33:10.186Z,74.73
2023-02-17T21:38:11.348Z,74.11
2023-02-17T21:43:12.738Z,73.10
2023-02-17T21:48:12.014Z,70.31
2023-02-17T21:53:13.431Z,67.96
2023-02-17T21:58:12.652Z,66.50
2023-02-17T22:03:13.851Z,66.09
2023-02-17T22:08:15.982Z,65.78
2023-02-17T22:13:15.155Z,65.14
2023-02-17T22:18:16.360Z,64.22
2023-02-17T22:23:18.653Z,63.10
2023-02-17T22:28:18.130Z,62.49
2023-02-17T22:33:17.292Z,62.05
2023-02-17T22:38:19.436Z,61.85
2023-02-17T22:43:18.557Z,61.44
2023-02-17T22:48:22.702Z,62.36
2023-02-17T22:53:19.822Z,62.16
2023-02-17T22:58:20.932Z,62.97
2023-02-17T23:03:23.192Z,62.77
2023-02-17T23:08:23.428Z,62.80
2023-02-17T23:13:22.593Z,65.04
2023-02-17T23:18:23.728Z,65.37
2023-02-17T23:23:24.860Z,67.72
2023-02-17T23:28:26.024Z,64.46
2023-02-17T23:33:28.140Z,66.27
2023-02-17T23:38:27.309Z,72.00
2023-02-17T23:43:28.483Z,72.65
2023-02-17T23:48:29.631Z,73.47
2023-02-17T23:53:31.778Z,74.42
2023-02-17T23:58:31.925Z,76.64
